sensor_id;sensor_type;location;lat;lon;timestamp;temperature;humidity
32097;DHT22;18610;49.916;8.284;2023-04-25T00:00:35;8.10;99.90
32097;DHT22;18610;49.916;8.284;2023-04-25T00:03:02;8.10;99.90
32097;DHT22;18610;49.916;8.284;2023-04-25T00:05:30;8.00;99.90
32097;DHT22;18610;49.916;8.284;2023-04-25T00:07:57;8.00;99.90
32097;DHT22;18610;49.916;8.284;2023-04-25T00:10:25;8.00;99.90
32097;DHT22;18610;49.916;8.284;2023-04-25T00:12:52;8.00;99.90
32097;DHT22;18610;49.916;8.284;2023-04-25T00:15:19;8.00;99.90
32097;DHT22;18610;49.916;8.284;2023-04-25T00:17:46;8.00;99.90
32097;DHT22;18610;49.916;8.284;2023-04-25T00:20:12;8.00;99.90
32097;DHT22;18610;49.916;8.284;2023-04-25T00:22:39;8.10;99.90
32097;DHT22;18610;49.916;8.284;2023-04-25T00:25:07;8.10;99.90
32097;DHT22;18610;49.916;8.284;2023-04-25T00:27:35;8.10;99.90
32097;DHT22;18610;49.916;8.284;2023-04-25T00:30:02;8.10;99.90
32097;DHT22;18610;49.916;8.284;2023-04-25T00:32:29;8.10;99.90
32097;DHT22;18610;49.916;8.284;2023-04-25T00:34:56;8.10;99.90
32097;DHT22;18610;49.916;8.284;2023-04-25T00:37:24;8.20;99.90
32097;DHT22;18610;49.916;8.284;2023-04-25T00:39:50;8.20;99.90
32097;DHT22;18610;49.916;8.284;2023-04-25T00:42:19;8.30;99.90
32097;DHT22;18610;49.916;8.284;2023-04-25T00:44:47;8.30;99.90
32097;DHT22;18610;49.916;8.284;2023-04-25T00:47:15;8.30;99.90
32097;DHT22;18610;49.916;8.284;2023-04-25T00:49:42;8.40;99.90
32097;DHT22;18610;49.916;8.284;2023-04-25T00:52:09;8.40;99.90
32097;DHT22;18610;49.916;8.284;2023-04-25T00:54:36;8.40;99.90
32097;DHT22;18610;49.916;8.284;2023-04-25T00:57:03;8.40;99.90
32097;DHT22;18610;49.916;8.284;2023-04-25T00:59:30;8.50;99.90
32097;DHT22;18610;49.916;8.284;2023-04-25T01:01:59;8.40;99.90
32097;DHT22;18610;49.916;8.284;2023-04-25T01:04:26;8.50;99.90
32097;DHT22;18610;49.916;8.284;2023-04-25T01:06:53;8.50;99.90
32097;DHT22;18610;49.916;8.284;2023-04-25T01:09:21;8.50;99.90
32097;DHT22;18610;49.916;8.284;2023-04-25T01:11:48;8.50;99.90
32097;DHT22;18610;49.916;8.284;2023-04-25T01:14:15;8.50;99.90
32097;DHT22;18610;49.916;8.284;2023-04-25T01:16:42;8.50;99.90
32097;DHT22;18610;49.916;8.284;2023-04-25T01:19:11;8.50;99.90
32097;DHT22;18610;49.916;8.284;2023-04-25T01:21:42;8.60;99.90
32097;DHT22;18610;49.916;8.284;2023-04-25T01:24:09;8.60;99.90
32097;DHT22;18610;49.916;8.284;2023-04-25T01:26:36;8.60;99.90
32097;DHT22;18610;49.916;8.284;2023-04-25T01:29:04;8.60;99.90
32097;DHT22;18610;49.916;8.284;2023-04-25T01:31:32;8.60;99.90
32097;DHT22;18610;49.916;8.284;2023-04-25T01:33:59;8.70;99.90
32097;DHT22;18610;49.916;8.284;2023-04-25T01:36:26;8.70;99.90
32097;DHT22;18610;49.916;8.284;2023-04-25T01:38:54;8.70;99.90
32097;DHT22;18610;49.916;8.284;2023-04-25T01:41:21;8.70;99.90
32097;DHT22;18610;49.916;8.284;2023-04-25T01:43:48;8.80;99.90
32097;DHT22;18610;49.916;8.284;2023-04-25T01:46:15;8.80;99.90
32097;DHT22;18610;49.916;8.284;2023-04-25T01:48:42;8.70;99.90
32097;DHT22;18610;49.916;8.284;2023-04-25T01:51:09;8.70;99.90
32097;DHT22;18610;49.916;8.284;2023-04-25T01:53:37;8.80;99.90
32097;DHT22;18610;49.916;8.284;2023-04-25T01:56:06;8.80;99.90
32097;DHT22;18610;49.916;8.284;2023-04-25T01:58:33;8.80;99.90
32097;DHT22;18610;49.916;8.284;2023-04-25T02:01:00;8.80;99.90
32097;DHT22;18610;49.916;8.284;2023-04-25T02:03:26;8.80;99.90
32097;DHT22;18610;49.916;8.284;2023-04-25T02:05:53;8.80;99.90
32097;DHT22;18610;49.916;8.284;2023-04-25T02:08:20;8.80;99.90
32097;DHT22;18610;49.916;8.284;2023-04-25T02:10:46;8.80;99.90
32097;DHT22;18610;49.916;8.284;2023-04-25T02:13:14;8.80;99.90
32097;DHT22;18610;49.916;8.284;2023-04-25T02:15:41;8.80;99.90
32097;DHT22;18610;49.916;8.284;2023-04-25T02:18:08;8.80;99.90
32097;DHT22;18610;49.916;8.284;2023-04-25T02:20:36;8.80;99.90
32097;DHT22;18610;49.916;8.284;2023-04-25T02:23:02;8.80;99.90
32097;DHT22;18610;49.916;8.284;2023-04-25T02:25:29;8.80;99.90
32097;DHT22;18610;49.916;8.284;2023-04-25T02:27:56;8.80;99.90
32097;DHT22;18610;49.916;8.284;2023-04-25T02:30:24;8.80;99.90
32097;DHT22;18610;49.916;8.284;2023-04-25T02:32:51;8.80;99.90
32097;DHT22;18610;49.916;8.284;2023-04-25T02:35:18;8.80;99.90
32097;DHT22;18610;49.916;8.284;2023-04-25T02:37:45;8.80;99.90
32097;DHT22;18610;49.916;8.284;2023-04-25T02:40:12;8.80;99.90
32097;DHT22;18610;49.916;8.284;2023-04-25T02:42:38;8.70;99.90
32097;DHT22;18610;49.916;8.284;2023-04-25T02:45:06;8.70;99.90
32097;DHT22;18610;49.916;8.284;2023-04-25T02:47:34;8.70;99.90
32097;DHT22;18610;49.916;8.284;2023-04-25T02:50:01;8.70;99.90
32097;DHT22;18610;49.916;8.284;2023-04-25T02:52:28;8.60;99.90
32097;DHT22;18610;49.916;8.284;2023-04-25T02:54:54;8.60;99.90
32097;DHT22;18610;49.916;8.284;2023-04-25T02:57:21;8.60;99.90
32097;DHT22;18610;49.916;8.284;2023-04-25T02:59:48;8.60;99.90
32097;DHT22;18610;49.916;8.284;2023-04-25T03:02:15;8.60;99.90
32097;DHT22;18610;49.916;8.284;2023-04-25T03:04:43;8.60;99.90
32097;DHT22;18610;49.916;8.284;2023-04-25T03:07:10;8.60;99.90
32097;DHT22;18610;49.916;8.284;2023-04-25T03:09:37;8.50;99.90
32097;DHT22;18610;49.916;8.284;2023-04-25T03:12:04;8.50;99.90
32097;DHT22;18610;49.916;8.284;2023-04-25T03:14:31;8.50;99.90
32097;DHT22;18610;49.916;8.284;2023-04-25T03:16:57;8.50;99.90
32097;DHT22;18610;49.916;8.284;2023-04-25T03:19:24;8.50;99.90
32097;DHT22;18610;49.916;8.284;2023-04-25T03:21:52;8.50;99.90
32097;DHT22;18610;49.916;8.284;2023-04-25T03:24:19;8.60;99.90
32097;DHT22;18610;49.916;8.284;2023-04-25T03:26:45;8.60;99.90
32097;DHT22;18610;49.916;8.284;2023-04-25T03:29:12;8.60;99.90
32097;DHT22;18610;49.916;8.284;2023-04-25T03:31:39;8.60;99.90
32097;DHT22;18610;49.916;8.284;2023-04-25T03:34:06;8.60;99.90
32097;DHT22;18610;49.916;8.284;2023-04-25T03:36:32;8.60;99.90
32097;DHT22;18610;49.916;8.284;2023-04-25T03:39:00;8.60;99.90
32097;DHT22;18610;49.916;8.284;2023-04-25T03:41:27;8.60;99.90
32097;DHT22;18610;49.916;8.284;2023-04-25T03:43:55;8.60;99.90
32097;DHT22;18610;49.916;8.284;2023-04-25T03:46:22;8.60;99.90
32097;DHT22;18610;49.916;8.284;2023-04-25T03:48:49;8.60;99.90
32097;DHT22;18610;49.916;8.284;2023-04-25T03:51:15;8.60;99.90
32097;DHT22;18610;49.916;8.284;2023-04-25T03:53:42;8.60;99.90
32097;DHT22;18610;49.916;8.284;2023-04-25T03:56:10;8.60;99.90
32097;DHT22;18610;49.916;8.284;2023-04-25T03:58:37;8.60;99.90
32097;DHT22;18610;49.916;8.284;2023-04-25T04:01:03;8.60;99.90
32097;DHT22;18610;49.916;8.284;2023-04-25T04:03:33;8.60;99.90
32097;DHT22;18610;49.916;8.284;2023-04-25T04:05:59;8.60;99.90
32097;DHT22;18610;49.916;8.284;2023-04-25T04:08:29;8.60;99.90
32097;DHT22;18610;49.916;8.284;2023-04-25T04:10:56;8.60;99.90
32097;DHT22;18610;49.916;8.284;2023-04-25T04:13:25;8.60;99.90
32097;DHT22;18610;49.916;8.284;2023-04-25T04:15:52;8.60;99.90
32097;DHT22;18610;49.916;8.284;2023-04-25T04:18:19;8.60;99.90
32097;DHT22;18610;49.916;8.284;2023-04-25T04:20:45;8.60;99.90
32097;DHT22;18610;49.916;8.284;2023-04-25T04:23:12;8.60;99.90
32097;DHT22;18610;49.916;8.284;2023-04-25T04:25:39;8.60;99.90
32097;DHT22;18610;49.916;8.284;2023-04-25T04:28:07;8.60;99.90
32097;DHT22;18610;49.916;8.284;2023-04-25T04:30:35;8.60;99.90
32097;DHT22;18610;49.916;8.284;2023-04-25T04:33:03;8.60;99.90
32097;DHT22;18610;49.916;8.284;2023-04-25T04:35:29;8.60;99.90
32097;DHT22;18610;49.916;8.284;2023-04-25T04:37:56;8.50;99.90
32097;DHT22;18610;49.916;8.284;2023-04-25T04:40:23;8.50;99.90
32097;DHT22;18610;49.916;8.284;2023-04-25T04:42:51;8.50;99.90
32097;DHT22;18610;49.916;8.284;2023-04-25T04:45:18;8.40;99.90
32097;DHT22;18610;49.916;8.284;2023-04-25T04:47:47;8.40;99.90
32097;DHT22;18610;49.916;8.284;2023-04-25T04:50:14;8.50;99.90
32097;DHT22;18610;49.916;8.284;2023-04-25T04:52:41;8.40;99.90
32097;DHT22;18610;49.916;8.284;2023-04-25T04:55:08;8.40;99.90
32097;DHT22;18610;49.916;8.284;2023-04-25T04:57:35;8.40;99.90
32097;DHT22;18610;49.916;8.284;2023-04-25T05:00:05;8.40;99.90
32097;DHT22;18610;49.916;8.284;2023-04-25T05:02:36;8.40;99.90
32097;DHT22;18610;49.916;8.284;2023-04-25T05:05:04;8.40;99.90
32097;DHT22;18610;49.916;8.284;2023-04-25T05:07:31;8.30;99.90
32097;DHT22;18610;49.916;8.284;2023-04-25T05:09:58;8.30;99.90
32097;DHT22;18610;49.916;8.284;2023-04-25T05:12:25;8.20;99.90
32097;DHT22;18610;49.916;8.284;2023-04-25T05:14:51;8.20;99.90
32097;DHT22;18610;49.916;8.284;2023-04-25T05:17:18;8.20;99.90
32097;DHT22;18610;49.916;8.284;2023-04-25T05:19:45;8.30;99.90
32097;DHT22;18610;49.916;8.284;2023-04-25T05:22:13;8.30;99.90
32097;DHT22;18610;49.916;8.284;2023-04-25T05:24:40;8.30;99.90
32097;DHT22;18610;49.916;8.284;2023-04-25T05:27:06;8.40;99.90
32097;DHT22;18610;49.916;8.284;2023-04-25T05:29:33;8.50;99.90
32097;DHT22;18610;49.916;8.284;2023-04-25T05:32:01;8.60;99.90
32097;DHT22;18610;49.916;8.284;2023-04-25T05:34:28;8.60;99.90
32097;DHT22;18610;49.916;8.284;2023-04-25T05:36:54;8.70;99.90
32097;DHT22;18610;49.916;8.284;2023-04-25T05:39:22;8.70;99.90
32097;DHT22;18610;49.916;8.284;2023-04-25T05:41:49;8.70;99.90
32097;DHT22;18610;49.916;8.284;2023-04-25T05:44:16;8.70;99.90
32097;DHT22;18610;49.916;8.284;2023-04-25T05:46:43;8.70;99.90
32097;DHT22;18610;49.916;8.284;2023-04-25T05:49:09;8.70;99.90
32097;DHT22;18610;49.916;8.284;2023-04-25T05:51:36;8.70;99.90
32097;DHT22;18610;49.916;8.284;2023-04-25T05:54:03;8.70;99.90
32097;DHT22;18610;49.916;8.284;2023-04-25T05:56:31;8.80;99.90
32097;DHT22;18610;49.916;8.284;2023-04-25T05:58:58;8.80;99.90
32097;DHT22;18610;49.916;8.284;2023-04-25T06:01:25;8.90;99.90
32097;DHT22;18610;49.916;8.284;2023-04-25T06:03:51;8.90;99.90
32097;DHT22;18610;49.916;8.284;2023-04-25T06:06:18;8.90;99.90
32097;DHT22;18610;49.916;8.284;2023-04-25T06:08:45;9.00;99.90
32097;DHT22;18610;49.916;8.284;2023-04-25T06:11:12;9.10;99.90
32097;DHT22;18610;49.916;8.284;2023-04-25T06:13:41;9.10;99.90
32097;DHT22;18610;49.916;8.284;2023-04-25T06:16:07;9.10;99.90
32097;DHT22;18610;49.916;8.284;2023-04-25T06:18:34;9.20;99.90
32097;DHT22;18610;49.916;8.284;2023-04-25T06:21:01;9.20;99.90
32097;DHT22;18610;49.916;8.284;2023-04-25T06:23:27;9.30;99.90
32097;DHT22;18610;49.916;8.284;2023-04-25T06:25:55;9.30;99.90
32097;DHT22;18610;49.916;8.284;2023-04-25T06:28:21;9.40;99.90
32097;DHT22;18610;49.916;8.284;2023-04-25T06:30:51;9.40;99.90
32097;DHT22;18610;49.916;8.284;2023-04-25T06:33:17;9.50;99.90
32097;DHT22;18610;49.916;8.284;2023-04-25T06:35:45;9.50;99.90
32097;DHT22;18610;49.916;8.284;2023-04-25T06:38:12;9.50;99.90
32097;DHT22;18610;49.916;8.284;2023-04-25T06:40:39;9.50;99.90
32097;DHT22;18610;49.916;8.284;2023-04-25T06:43:06;9.50;99.90
32097;DHT22;18610;49.916;8.284;2023-04-25T06:45:32;9.50;99.90
32097;DHT22;18610;49.916;8.284;2023-04-25T06:48:00;9.50;99.90
32097;DHT22;18610;49.916;8.284;2023-04-25T06:50:27;9.40;99.90
32097;DHT22;18610;49.916;8.284;2023-04-25T06:52:54;9.40;99.90
32097;DHT22;18610;49.916;8.284;2023-04-25T06:55:21;9.30;99.90
32097;DHT22;18610;49.916;8.284;2023-04-25T06:57:48;9.30;99.90
32097;DHT22;18610;49.916;8.284;2023-04-25T07:00:15;9.30;99.90
32097;DHT22;18610;49.916;8.284;2023-04-25T07:02:42;9.30;99.90
32097;DHT22;18610;49.916;8.284;2023-04-25T07:05:12;9.40;99.90
32097;DHT22;18610;49.916;8.284;2023-04-25T07:07:39;9.40;99.90
32097;DHT22;18610;49.916;8.284;2023-04-25T07:10:06;9.50;99.90
32097;DHT22;18610;49.916;8.284;2023-04-25T07:12:33;9.70;99.90
32097;DHT22;18610;49.916;8.284;2023-04-25T07:15:00;9.80;99.90
32097;DHT22;18610;49.916;8.284;2023-04-25T07:17:31;10.00;99.90
32097;DHT22;18610;49.916;8.284;2023-04-25T07:19:59;10.10;99.90
32097;DHT22;18610;49.916;8.284;2023-04-25T07:22:27;10.20;99.90
32097;DHT22;18610;49.916;8.284;2023-04-25T07:24:54;10.30;99.90
32097;DHT22;18610;49.916;8.284;2023-04-25T07:27:21;10.40;99.90
32097;DHT22;18610;49.916;8.284;2023-04-25T07:29:48;10.50;99.90
32097;DHT22;18610;49.916;8.284;2023-04-25T07:32:15;10.50;99.90
32097;DHT22;18610;49.916;8.284;2023-04-25T07:34:41;10.50;99.90
32097;DHT22;18610;49.916;8.284;2023-04-25T07:37:08;10.50;99.90
32097;DHT22;18610;49.916;8.284;2023-04-25T07:39:37;10.50;99.90
32097;DHT22;18610;49.916;8.284;2023-04-25T07:42:04;10.50;99.90
32097;DHT22;18610;49.916;8.284;2023-04-25T07:44:33;10.50;99.90
32097;DHT22;18610;49.916;8.284;2023-04-25T07:47:04;10.50;99.90
32097;DHT22;18610;49.916;8.284;2023-04-25T07:49:32;10.60;99.90
32097;DHT22;18610;49.916;8.284;2023-04-25T07:51:59;10.60;99.90
32097;DHT22;18610;49.916;8.284;2023-04-25T07:54:26;10.70;99.90
32097;DHT22;18610;49.916;8.284;2023-04-25T07:56:54;10.90;99.90
32097;DHT22;18610;49.916;8.284;2023-04-25T07:59:21;11.10;99.90
32097;DHT22;18610;49.916;8.284;2023-04-25T08:01:48;11.30;99.90
32097;DHT22;18610;49.916;8.284;2023-04-25T08:04:15;11.60;99.90
32097;DHT22;18610;49.916;8.284;2023-04-25T08:06:42;11.90;99.90
32097;DHT22;18610;49.916;8.284;2023-04-25T08:09:09;12.20;99.90
32097;DHT22;18610;49.916;8.284;2023-04-25T08:11:35;12.40;99.90
32097;DHT22;18610;49.916;8.284;2023-04-25T08:14:04;12.60;99.90
32097;DHT22;18610;49.916;8.284;2023-04-25T08:16:31;12.70;99.90
32097;DHT22;18610;49.916;8.284;2023-04-25T08:18:59;12.80;99.90
32097;DHT22;18610;49.916;8.284;2023-04-25T08:21:26;12.90;99.90
32097;DHT22;18610;49.916;8.284;2023-04-25T08:23:53;12.90;99.90
32097;DHT22;18610;49.916;8.284;2023-04-25T08:26:20;12.90;99.90
32097;DHT22;18610;49.916;8.284;2023-04-25T08:28:46;12.90;99.90
32097;DHT22;18610;49.916;8.284;2023-04-25T08:31:14;13.00;99.90
32097;DHT22;18610;49.916;8.284;2023-04-25T08:33:41;13.10;99.90
32097;DHT22;18610;49.916;8.284;2023-04-25T08:36:08;13.20;99.90
32097;DHT22;18610;49.916;8.284;2023-04-25T08:38:35;13.30;99.50
32097;DHT22;18610;49.916;8.284;2023-04-25T08:41:02;13.40;99.50
32097;DHT22;18610;49.916;8.284;2023-04-25T08:43:29;13.50;99.50
32097;DHT22;18610;49.916;8.284;2023-04-25T08:45:59;13.60;98.60
32097;DHT22;18610;49.916;8.284;2023-04-25T08:48:28;13.60;97.40
32097;DHT22;18610;49.916;8.284;2023-04-25T08:50:56;13.70;97.40
32097;DHT22;18610;49.916;8.284;2023-04-25T08:53:26;13.70;98.10
32097;DHT22;18610;49.916;8.284;2023-04-25T08:55:54;13.70;97.70
32097;DHT22;18610;49.916;8.284;2023-04-25T08:58:21;13.90;98.20
32097;DHT22;18610;49.916;8.284;2023-04-25T09:00:49;14.10;96.90
32097;DHT22;18610;49.916;8.284;2023-04-25T09:03:16;14.30;97.40
32097;DHT22;18610;49.916;8.284;2023-04-25T09:05:44;14.50;96.40
32097;DHT22;18610;49.916;8.284;2023-04-25T09:08:11;14.70;95.00
32097;DHT22;18610;49.916;8.284;2023-04-25T09:10:40;14.80;94.00
32097;DHT22;18610;49.916;8.284;2023-04-25T09:13:08;14.90;93.50
32097;DHT22;18610;49.916;8.284;2023-04-25T09:15:47;14.80;93.80
32097;DHT22;18610;49.916;8.284;2023-04-25T09:18:22;14.80;95.00
32097;DHT22;18610;49.916;8.284;2023-04-25T09:20:51;14.80;95.30
32097;DHT22;18610;49.916;8.284;2023-04-25T09:23:19;14.70;95.60
32097;DHT22;18610;49.916;8.284;2023-04-25T09:25:47;14.70;95.80
32097;DHT22;18610;49.916;8.284;2023-04-25T09:28:14;14.60;95.90
32097;DHT22;18610;49.916;8.284;2023-04-25T09:30:41;14.70;95.50
32097;DHT22;18610;49.916;8.284;2023-04-25T09:33:10;14.80;95.70
32097;DHT22;18610;49.916;8.284;2023-04-25T09:35:39;14.80;95.70
32097;DHT22;18610;49.916;8.284;2023-04-25T09:38:14;14.70;94.60
32097;DHT22;18610;49.916;8.284;2023-04-25T09:40:45;14.60;94.20
32097;DHT22;18610;49.916;8.284;2023-04-25T09:43:19;14.40;94.30
32097;DHT22;18610;49.916;8.284;2023-04-25T09:45:46;14.10;93.70
32097;DHT22;18610;49.916;8.284;2023-04-25T09:48:17;13.90;94.80
32097;DHT22;18610;49.916;8.284;2023-04-25T09:50:44;13.80;95.10
32097;DHT22;18610;49.916;8.284;2023-04-25T09:53:13;13.70;95.70
32097;DHT22;18610;49.916;8.284;2023-04-25T09:55:42;13.60;95.00
32097;DHT22;18610;49.916;8.284;2023-04-25T09:58:10;13.40;95.20
32097;DHT22;18610;49.916;8.284;2023-04-25T10:00:37;13.20;96.20
32097;DHT22;18610;49.916;8.284;2023-04-25T10:03:05;13.10;96.80
32097;DHT22;18610;49.916;8.284;2023-04-25T10:05:34;13.00;97.10
32097;DHT22;18610;49.916;8.284;2023-04-25T10:08:03;12.90;96.60
32097;DHT22;18610;49.916;8.284;2023-04-25T10:10:32;12.90;97.40
32097;DHT22;18610;49.916;8.284;2023-04-25T10:13:03;12.80;97.10
32097;DHT22;18610;49.916;8.284;2023-04-25T10:15:32;12.70;96.80
32097;DHT22;18610;49.916;8.284;2023-04-25T10:18:01;12.70;96.50
32097;DHT22;18610;49.916;8.284;2023-04-25T10:20:28;12.60;96.20
32097;DHT22;18610;49.916;8.284;2023-04-25T10:22:58;12.60;96.60
32097;DHT22;18610;49.916;8.284;2023-04-25T10:25:31;12.60;97.80
32097;DHT22;18610;49.916;8.284;2023-04-25T10:27:59;12.60;98.80
32097;DHT22;18610;49.916;8.284;2023-04-25T10:30:27;12.60;99.00
32097;DHT22;18610;49.916;8.284;2023-04-25T10:32:55;12.70;98.30
32097;DHT22;18610;49.916;8.284;2023-04-25T10:35:25;12.70;99.30
32097;DHT22;18610;49.916;8.284;2023-04-25T10:38:00;12.90;99.10
32097;DHT22;18610;49.916;8.284;2023-04-25T10:40:28;13.10;98.60
32097;DHT22;18610;49.916;8.284;2023-04-25T10:43:36;13.40;96.50
32097;DHT22;18610;49.916;8.284;2023-04-25T10:46:13;13.90;96.10
32097;DHT22;18610;49.916;8.284;2023-04-25T10:48:45;14.50;93.40
32097;DHT22;18610;49.916;8.284;2023-04-25T10:51:17;15.10;92.80
32097;DHT22;18610;49.916;8.284;2023-04-25T10:53:45;15.30;92.40
32097;DHT22;18610;49.916;8.284;2023-04-25T10:56:17;15.50;90.90
32097;DHT22;18610;49.916;8.284;2023-04-25T10:58:45;15.50;90.60
32097;DHT22;18610;49.916;8.284;2023-04-25T11:01:13;15.50;90.70
32097;DHT22;18610;49.916;8.284;2023-04-25T11:03:41;15.30;91.40
32097;DHT22;18610;49.916;8.284;2023-04-25T11:06:22;15.10;91.20
32097;DHT22;18610;49.916;8.284;2023-04-25T11:08:50;14.90;92.20
32097;DHT22;18610;49.916;8.284;2023-04-25T11:11:18;14.70;90.10
32097;DHT22;18610;49.916;8.284;2023-04-25T11:13:49;14.50;90.70
32097;DHT22;18610;49.916;8.284;2023-04-25T11:16:16;14.60;91.70
32097;DHT22;18610;49.916;8.284;2023-04-25T11:18:43;14.80;90.30
32097;DHT22;18610;49.916;8.284;2023-04-25T11:21:11;14.90;90.70
32097;DHT22;18610;49.916;8.284;2023-04-25T11:23:37;15.00;89.00
32097;DHT22;18610;49.916;8.284;2023-04-25T11:26:04;15.10;90.30
32097;DHT22;18610;49.916;8.284;2023-04-25T11:28:31;15.10;89.40
32097;DHT22;18610;49.916;8.284;2023-04-25T11:30:59;15.00;89.80
32097;DHT22;18610;49.916;8.284;2023-04-25T11:33:26;15.00;90.00
32097;DHT22;18610;49.916;8.284;2023-04-25T11:35:54;14.90;88.90
32097;DHT22;18610;49.916;8.284;2023-04-25T11:38:22;14.80;90.30
32097;DHT22;18610;49.916;8.284;2023-04-25T11:40:52;14.50;89.60
32097;DHT22;18610;49.916;8.284;2023-04-25T11:43:20;14.20;90.30
32097;DHT22;18610;49.916;8.284;2023-04-25T11:45:48;14.00;91.00
32097;DHT22;18610;49.916;8.284;2023-04-25T11:48:17;13.80;92.30
32097;DHT22;18610;49.916;8.284;2023-04-25T11:50:44;13.60;92.70
32097;DHT22;18610;49.916;8.284;2023-04-25T11:53:11;13.40;92.40
32097;DHT22;18610;49.916;8.284;2023-04-25T11:55:38;13.30;92.90
32097;DHT22;18610;49.916;8.284;2023-04-25T11:58:05;13.30;93.00
32097;DHT22;18610;49.916;8.284;2023-04-25T12:00:34;13.20;93.50
32097;DHT22;18610;49.916;8.284;2023-04-25T12:03:01;13.10;92.80
32097;DHT22;18610;49.916;8.284;2023-04-25T12:05:30;13.10;93.90
32097;DHT22;18610;49.916;8.284;2023-04-25T12:08:09;13.10;94.80
32097;DHT22;18610;49.916;8.284;2023-04-25T12:10:37;13.20;94.20
32097;DHT22;18610;49.916;8.284;2023-04-25T12:13:18;13.30;94.30
32097;DHT22;18610;49.916;8.284;2023-04-25T12:15:45;13.50;94.70
32097;DHT22;18610;49.916;8.284;2023-04-25T12:18:12;13.80;93.40
32097;DHT22;18610;49.916;8.284;2023-04-25T12:20:41;14.00;92.50
32097;DHT22;18610;49.916;8.284;2023-04-25T12:23:08;14.20;91.30
32097;DHT22;18610;49.916;8.284;2023-04-25T12:25:37;14.20;92.50
32097;DHT22;18610;49.916;8.284;2023-04-25T12:28:14;14.30;92.60
32097;DHT22;18610;49.916;8.284;2023-04-25T12:30:55;14.50;92.50
32097;DHT22;18610;49.916;8.284;2023-04-25T12:33:23;14.70;91.00
32097;DHT22;18610;49.916;8.284;2023-04-25T12:35:51;14.70;91.30
32097;DHT22;18610;49.916;8.284;2023-04-25T12:38:22;14.60;91.00
32097;DHT22;18610;49.916;8.284;2023-04-25T12:40:50;14.50;90.60
32097;DHT22;18610;49.916;8.284;2023-04-25T12:43:16;14.40;90.50
32097;DHT22;18610;49.916;8.284;2023-04-25T12:45:47;14.30;89.80
32097;DHT22;18610;49.916;8.284;2023-04-25T12:48:14;14.10;90.00
32097;DHT22;18610;49.916;8.284;2023-04-25T12:50:41;14.00;90.70
32097;DHT22;18610;49.916;8.284;2023-04-25T12:53:09;13.90;90.40
32097;DHT22;18610;49.916;8.284;2023-04-25T12:55:35;13.90;90.30
32097;DHT22;18610;49.916;8.284;2023-04-25T12:58:02;14.00;87.70
32097;DHT22;18610;49.916;8.284;2023-04-25T13:00:29;14.00;86.50
32097;DHT22;18610;49.916;8.284;2023-04-25T13:02:57;14.10;84.80
32097;DHT22;18610;49.916;8.284;2023-04-25T13:05:24;14.40;84.00
32097;DHT22;18610;49.916;8.284;2023-04-25T13:07:52;14.70;81.90
32097;DHT22;18610;49.916;8.284;2023-04-25T13:10:22;14.80;81.20
32097;DHT22;18610;49.916;8.284;2023-04-25T13:12:49;14.80;80.70
32097;DHT22;18610;49.916;8.284;2023-04-25T13:15:16;14.80;80.90
32097;DHT22;18610;49.916;8.284;2023-04-25T13:17:43;14.80;81.60
32097;DHT22;18610;49.916;8.284;2023-04-25T13:20:10;14.80;80.90
32097;DHT22;18610;49.916;8.284;2023-04-25T13:22:38;14.80;81.40
32097;DHT22;18610;49.916;8.284;2023-04-25T13:25:06;14.80;82.80
32097;DHT22;18610;49.916;8.284;2023-04-25T13:27:35;14.70;81.70
32097;DHT22;18610;49.916;8.284;2023-04-25T13:30:03;14.60;82.70
32097;DHT22;18610;49.916;8.284;2023-04-25T13:32:32;14.40;84.60
32097;DHT22;18610;49.916;8.284;2023-04-25T13:35:01;14.40;85.30
32097;DHT22;18610;49.916;8.284;2023-04-25T13:37:28;14.40;85.50
32097;DHT22;18610;49.916;8.284;2023-04-25T13:39:56;14.30;82.70
32097;DHT22;18610;49.916;8.284;2023-04-25T13:42:23;14.20;81.90
32097;DHT22;18610;49.916;8.284;2023-04-25T13:44:51;14.10;84.10
32097;DHT22;18610;49.916;8.284;2023-04-25T13:47:18;14.00;85.50
32097;DHT22;18610;49.916;8.284;2023-04-25T13:49:45;13.90;85.90
32097;DHT22;18610;49.916;8.284;2023-04-25T13:52:11;13.90;85.50
32097;DHT22;18610;49.916;8.284;2023-04-25T13:54:38;13.90;83.90
32097;DHT22;18610;49.916;8.284;2023-04-25T13:57:06;13.80;84.80
32097;DHT22;18610;49.916;8.284;2023-04-25T13:59:32;13.80;86.40
32097;DHT22;18610;49.916;8.284;2023-04-25T14:02:00;13.70;85.60
32097;DHT22;18610;49.916;8.284;2023-04-25T14:04:28;13.70;84.20
32097;DHT22;18610;49.916;8.284;2023-04-25T14:06:55;13.80;86.00
32097;DHT22;18610;49.916;8.284;2023-04-25T14:09:22;13.80;86.00
32097;DHT22;18610;49.916;8.284;2023-04-25T14:11:51;13.80;85.00
32097;DHT22;18610;49.916;8.284;2023-04-25T14:14:17;13.70;85.30
32097;DHT22;18610;49.916;8.284;2023-04-25T14:16:44;13.60;80.80
32097;DHT22;18610;49.916;8.284;2023-04-25T14:19:12;13.50;82.60
32097;DHT22;18610;49.916;8.284;2023-04-25T14:21:39;13.30;84.50
32097;DHT22;18610;49.916;8.284;2023-04-25T14:24:06;13.30;83.00
32097;DHT22;18610;49.916;8.284;2023-04-25T14:26:33;13.20;83.60
32097;DHT22;18610;49.916;8.284;2023-04-25T14:29:00;13.10;85.40
32097;DHT22;18610;49.916;8.284;2023-04-25T14:31:27;13.10;83.80
32097;DHT22;18610;49.916;8.284;2023-04-25T14:33:54;12.90;84.20
32097;DHT22;18610;49.916;8.284;2023-04-25T14:36:22;12.90;84.40
32097;DHT22;18610;49.916;8.284;2023-04-25T14:38:49;12.90;84.50
32097;DHT22;18610;49.916;8.284;2023-04-25T14:41:16;13.00;87.50
32097;DHT22;18610;49.916;8.284;2023-04-25T14:43:42;13.10;88.70
32097;DHT22;18610;49.916;8.284;2023-04-25T14:46:10;13.20;85.30
32097;DHT22;18610;49.916;8.284;2023-04-25T14:48:37;13.30;85.20
32097;DHT22;18610;49.916;8.284;2023-04-25T14:51:04;13.40;84.90
32097;DHT22;18610;49.916;8.284;2023-04-25T14:53:33;13.50;85.00
32097;DHT22;18610;49.916;8.284;2023-04-25T14:56:00;13.70;83.90
32097;DHT22;18610;49.916;8.284;2023-04-25T14:58:26;13.80;84.10
32097;DHT22;18610;49.916;8.284;2023-04-25T15:00:53;13.90;80.10
32097;DHT22;18610;49.916;8.284;2023-04-25T15:03:20;13.90;81.70
32097;DHT22;18610;49.916;8.284;2023-04-25T15:05:47;13.90;81.50
32097;DHT22;18610;49.916;8.284;2023-04-25T15:08:13;13.90;79.90
32097;DHT22;18610;49.916;8.284;2023-04-25T15:10:42;13.90;81.80
32097;DHT22;18610;49.916;8.284;2023-04-25T15:13:08;13.90;81.60
32097;DHT22;18610;49.916;8.284;2023-04-25T15:15:35;13.90;81.30
32097;DHT22;18610;49.916;8.284;2023-04-25T15:18:02;13.80;78.80
32097;DHT22;18610;49.916;8.284;2023-04-25T15:20:29;13.80;81.70
32097;DHT22;18610;49.916;8.284;2023-04-25T15:22:57;13.70;81.10
32097;DHT22;18610;49.916;8.284;2023-04-25T15:25:24;13.60;80.50
32097;DHT22;18610;49.916;8.284;2023-04-25T15:27:52;13.50;81.00
32097;DHT22;18610;49.916;8.284;2023-04-25T15:30:20;13.40;79.10
32097;DHT22;18610;49.916;8.284;2023-04-25T15:32:47;13.50;79.80
32097;DHT22;18610;49.916;8.284;2023-04-25T15:35:14;13.40;82.40
32097;DHT22;18610;49.916;8.284;2023-04-25T15:37:41;13.40;82.60
32097;DHT22;18610;49.916;8.284;2023-04-25T15:40:10;13.50;79.40